sensor_id;sensor_type;location;lat;lon;timestamp;P1;durP1;ratioP1;P2;durP2;ratioP2
3329;SDS011;1677;49.576;10.990;2023-05-14T00:00:42;8.07;;;7.27;;
3329;SDS011;1677;49.576;10.990;2023-05-14T00:03:07;8.20;;;7.30;;
3329;SDS011;1677;49.576;10.990;2023-05-14T00:05:33;8.20;;;7.03;;
3329;SDS011;1677;49.576;10.990;2023-05-14T00:07:58;8.13;;;7.37;;
3329;SDS011;1677;49.576;10.990;2023-05-14T00:10:25;8.60;;;7.67;;
3329;SDS011;1677;49.576;10.990;2023-05-14T00:12:51;7.80;;;7.00;;
3329;SDS011;1677;49.576;10.990;2023-05-14T00:15:17;9.43;;;7.75;;
3329;SDS011;1677;49.576;10.990;2023-05-14T00:17:43;11.45;;;7.47;;
3329;SDS011;1677;49.576;10.990;2023-05-14T00:20:09;8.90;;;7.90;;
3329;SDS011;1677;49.576;10.990;2023-05-14T00:22:36;9.88;;;8.88;;
3329;SDS011;1677;49.576;10.990;2023-05-14T00:25:02;8.75;;;7.65;;
3329;SDS011;1677;49.576;10.990;2023-05-14T00:27:28;9.15;;;8.25;;
3329;SDS011;1677;49.576;10.990;2023-05-14T00:29:54;10.40;;;7.50;;
3329;SDS011;1677;49.576;10.990;2023-05-14T00:32:19;7.63;;;6.93;;
3329;SDS011;1677;49.576;10.990;2023-05-14T00:34:45;8.07;;;7.27;;
3329;SDS011;1677;49.576;10.990;2023-05-14T00:37:11;8.50;;;7.60;;
3329;SDS011;1677;49.576;10.990;2023-05-14T00:39:36;10.67;;;7.77;;
3329;SDS011;1677;49.576;10.990;2023-05-14T00:42:02;9.50;;;8.50;;
3329;SDS011;1677;49.576;10.990;2023-05-14T00:44:27;11.88;;;9.10;;
3329;SDS011;1677;49.576;10.990;2023-05-14T00:46:53;10.63;;;9.00;;
3329;SDS011;1677;49.576;10.990;2023-05-14T00:49:19;8.67;;;7.77;;
3329;SDS011;1677;49.576;10.990;2023-05-14T00:51:45;11.77;;;8.30;;
3329;SDS011;1677;49.576;10.990;2023-05-14T00:54:12;9.57;;;8.57;;
3329;SDS011;1677;49.576;10.990;2023-05-14T00:56:39;13.52;;;8.07;;
3329;SDS011;1677;49.576;10.990;2023-05-14T00:59:04;8.37;;;7.17;;
3329;SDS011;1677;49.576;10.990;2023-05-14T01:01:30;10.37;;;7.80;;
3329;SDS011;1677;49.576;10.990;2023-05-14T01:03:55;7.63;;;6.77;;
3329;SDS011;1677;49.576;10.990;2023-05-14T01:06:28;8.65;;;7.75;;
3329;SDS011;1677;49.576;10.990;2023-05-14T01:09:21;7.93;;;7.13;;
3329;SDS011;1677;49.576;10.990;2023-05-14T01:11:59;10.95;;;8.02;;
3329;SDS011;1677;49.576;10.990;2023-05-14T01:14:56;9.48;;;7.93;;
3329;SDS011;1677;49.576;10.990;2023-05-14T01:17:53;10.10;;;8.13;;
3329;SDS011;1677;49.576;10.990;2023-05-14T01:20:22;9.63;;;7.63;;
3329;SDS011;1677;49.576;10.990;2023-05-14T01:22:47;8.27;;;7.27;;
3329;SDS011;1677;49.576;10.990;2023-05-14T01:25:13;10.00;;;8.53;;
3329;SDS011;1677;49.576;10.990;2023-05-14T01:30:29;8.90;;;7.40;;
3329;SDS011;1677;49.576;10.990;2023-05-14T01:32:57;7.95;;;7.15;;
3329;SDS011;1677;49.576;10.990;2023-05-14T01:35:28;8.23;;;7.22;;
3329;SDS011;1677;49.576;10.990;2023-05-14T01:37:59;8.05;;;7.25;;
3329;SDS011;1677;49.576;10.990;2023-05-14T01:40:27;8.18;;;7.35;;
3329;SDS011;1677;49.576;10.990;2023-05-14T01:42:54;8.55;;;7.53;;
3329;SDS011;1677;49.576;10.990;2023-05-14T01:45:20;7.88;;;7.05;;
3329;SDS011;1677;49.576;10.990;2023-05-14T01:47:47;9.05;;;7.13;;
3329;SDS011;1677;49.576;10.990;2023-05-14T01:50:12;8.93;;;6.80;;
3329;SDS011;1677;49.576;10.990;2023-05-14T01:52:38;8.70;;;7.80;;
3329;SDS011;1677;49.576;10.990;2023-05-14T01:55:03;10.30;;;8.50;;
3329;SDS011;1677;49.576;10.990;2023-05-14T01:57:30;8.77;;;7.97;;
3329;SDS011;1677;49.576;10.990;2023-05-14T01:59:55;9.60;;;6.80;;
3329;SDS011;1677;49.576;10.990;2023-05-14T02:02:21;10.40;;;7.90;;
3329;SDS011;1677;49.576;10.990;2023-05-14T02:04:47;8.67;;;6.97;;
3329;SDS011;1677;49.576;10.990;2023-05-14T02:07:13;8.03;;;7.23;;
3329;SDS011;1677;49.576;10.990;2023-05-14T02:09:38;7.20;;;6.50;;
3329;SDS011;1677;49.576;10.990;2023-05-14T02:12:05;8.60;;;6.90;;
3329;SDS011;1677;49.576;10.990;2023-05-14T02:14:31;8.05;;;7.10;;
3329;SDS011;1677;49.576;10.990;2023-05-14T02:16:57;8.30;;;7.50;;
3329;SDS011;1677;49.576;10.990;2023-05-14T02:19:23;7.80;;;7.00;;
3329;SDS011;1677;49.576;10.990;2023-05-14T02:21:48;8.87;;;7.73;;
3329;SDS011;1677;49.576;10.990;2023-05-14T02:24:14;9.43;;;7.40;;
3329;SDS011;1677;49.576;10.990;2023-05-14T02:26:39;7.60;;;6.90;;
3329;SDS011;1677;49.576;10.990;2023-05-14T02:29:06;6.93;;;6.13;;
3329;SDS011;1677;49.576;10.990;2023-05-14T02:31:32;7.85;;;6.68;;
3329;SDS011;1677;49.576;10.990;2023-05-14T02:33:59;7.57;;;6.67;;
3329;SDS011;1677;49.576;10.990;2023-05-14T02:36:25;7.70;;;7.00;;
3329;SDS011;1677;49.576;10.990;2023-05-14T02:38:51;10.00;;;6.03;;
3329;SDS011;1677;49.576;10.990;2023-05-14T02:41:17;8.53;;;6.77;;
3329;SDS011;1677;49.576;10.990;2023-05-14T02:43:42;7.87;;;6.40;;
3329;SDS011;1677;49.576;10.990;2023-05-14T02:46:08;7.00;;;6.37;;
3329;SDS011;1677;49.576;10.990;2023-05-14T02:48:33;7.90;;;7.10;;
3329;SDS011;1677;49.576;10.990;2023-05-14T02:50:59;7.97;;;7.18;;
3329;SDS011;1677;49.576;10.990;2023-05-14T02:53:25;9.17;;;7.13;;
3329;SDS011;1677;49.576;10.990;2023-05-14T02:55:50;7.23;;;6.53;;
3329;SDS011;1677;49.576;10.990;2023-05-14T02:58:16;7.33;;;6.63;;
3329;SDS011;1677;49.576;10.990;2023-05-14T03:00:41;8.33;;;7.30;;
3329;SDS011;1677;49.576;10.990;2023-05-14T03:03:07;9.10;;;7.23;;
3329;SDS011;1677;49.576;10.990;2023-05-14T03:05:32;7.33;;;6.63;;
3329;SDS011;1677;49.576;10.990;2023-05-14T03:07:58;6.80;;;5.93;;
3329;SDS011;1677;49.576;10.990;2023-05-14T03:10:24;8.67;;;7.13;;
3329;SDS011;1677;49.576;10.990;2023-05-14T03:12:49;6.23;;;5.63;;
3329;SDS011;1677;49.576;10.990;2023-05-14T03:15:15;6.73;;;6.13;;
3329;SDS011;1677;49.576;10.990;2023-05-14T03:17:41;6.80;;;5.90;;
3329;SDS011;1677;49.576;10.990;2023-05-14T03:20:06;7.80;;;5.40;;
3329;SDS011;1677;49.576;10.990;2023-05-14T03:22:32;6.73;;;6.13;;
3329;SDS011;1677;49.576;10.990;2023-05-14T03:24:58;9.47;;;6.77;;
3329;SDS011;1677;49.576;10.990;2023-05-14T03:27:23;7.70;;;6.90;;
3329;SDS011;1677;49.576;10.990;2023-05-14T03:29:49;8.07;;;6.90;;
3329;SDS011;1677;49.576;10.990;2023-05-14T03:32:14;7.63;;;6.57;;
3329;SDS011;1677;49.576;10.990;2023-05-14T03:34:40;7.97;;;7.17;;
3329;SDS011;1677;49.576;10.990;2023-05-14T03:37:05;7.67;;;6.53;;
3329;SDS011;1677;49.576;10.990;2023-05-14T03:39:31;6.47;;;5.73;;
3329;SDS011;1677;49.576;10.990;2023-05-14T03:41:57;8.33;;;6.80;;
3329;SDS011;1677;49.576;10.990;2023-05-14T03:44:23;7.50;;;6.60;;
3329;SDS011;1677;49.576;10.990;2023-05-14T03:46:49;8.10;;;6.47;;
3329;SDS011;1677;49.576;10.990;2023-05-14T03:49:14;8.40;;;7.60;;
3329;SDS011;1677;49.576;10.990;2023-05-14T03:51:40;8.40;;;7.00;;
3329;SDS011;1677;49.576;10.990;2023-05-14T03:54:05;7.77;;;6.97;;
3329;SDS011;1677;49.576;10.990;2023-05-14T03:56:31;7.97;;;7.17;;
3329;SDS011;1677;49.576;10.990;2023-05-14T03:58:57;9.80;;;8.43;;
3329;SDS011;1677;49.576;10.990;2023-05-14T04:01:22;9.10;;;7.27;;
3329;SDS011;1677;49.576;10.990;2023-05-14T04:03:48;15.70;;;7.10;;
3329;SDS011;1677;49.576;10.990;2023-05-14T04:06:13;8.87;;;8.00;;
3329;SDS011;1677;49.576;10.990;2023-05-14T04:08:40;7.95;;;7.15;;
3329;SDS011;1677;49.576;10.990;2023-05-14T04:11:05;8.13;;;7.37;;
3329;SDS011;1677;49.576;10.990;2023-05-14T04:13:31;10.00;;;7.60;;
3329;SDS011;1677;49.576;10.990;2023-05-14T04:15:56;8.10;;;7.30;;
3329;SDS011;1677;49.576;10.990;2023-05-14T04:18:22;7.67;;;6.63;;
3329;SDS011;1677;49.576;10.990;2023-05-14T04:20:47;6.07;;;5.47;;
3329;SDS011;1677;49.576;10.990;2023-05-14T04:23:13;7.17;;;6.37;;
3329;SDS011;1677;49.576;10.990;2023-05-14T04:25:38;6.97;;;6.27;;
3329;SDS011;1677;49.576;10.990;2023-05-14T04:28:04;10.00;;;6.40;;
3329;SDS011;1677;49.576;10.990;2023-05-14T04:30:30;7.50;;;6.80;;
3329;SDS011;1677;49.576;10.990;2023-05-14T04:32:55;12.33;;;6.90;;
3329;SDS011;1677;49.576;10.990;2023-05-14T04:35:21;9.70;;;7.50;;
3329;SDS011;1677;49.576;10.990;2023-05-14T04:37:46;9.10;;;6.93;;
3329;SDS011;1677;49.576;10.990;2023-05-14T04:40:13;7.37;;;6.73;;
3329;SDS011;1677;49.576;10.990;2023-05-14T04:42:40;9.13;;;7.38;;
3329;SDS011;1677;49.576;10.990;2023-05-14T04:45:06;8.00;;;7.20;;
3329;SDS011;1677;49.576;10.990;2023-05-14T04:47:32;7.63;;;6.83;;
3329;SDS011;1677;49.576;10.990;2023-05-14T04:49:58;8.47;;;7.60;;
3329;SDS011;1677;49.576;10.990;2023-05-14T04:52:24;6.80;;;6.20;;
3329;SDS011;1677;49.576;10.990;2023-05-14T04:54:49;7.43;;;6.70;;
3329;SDS011;1677;49.576;10.990;2023-05-14T04:57:15;7.45;;;6.75;;
3329;SDS011;1677;49.576;10.990;2023-05-14T04:59:41;7.20;;;6.50;;
3329;SDS011;1677;49.576;10.990;2023-05-14T05:02:06;8.17;;;6.00;;
3329;SDS011;1677;49.576;10.990;2023-05-14T05:04:32;14.47;;;7.97;;
3329;SDS011;1677;49.576;10.990;2023-05-14T05:06:57;8.13;;;6.40;;
3329;SDS011;1677;49.576;10.990;2023-05-14T05:09:23;8.43;;;6.60;;
3329;SDS011;1677;49.576;10.990;2023-05-14T05:11:49;6.77;;;6.07;;
3329;SDS011;1677;49.576;10.990;2023-05-14T05:14:14;10.80;;;7.00;;
3329;SDS011;1677;49.576;10.990;2023-05-14T05:16:40;7.63;;;6.30;;
3329;SDS011;1677;49.576;10.990;2023-05-14T05:19:06;6.33;;;5.73;;
3329;SDS011;1677;49.576;10.990;2023-05-14T05:21:31;6.63;;;5.40;;
3329;SDS011;1677;49.576;10.990;2023-05-14T05:23:57;6.70;;;5.60;;
3329;SDS011;1677;49.576;10.990;2023-05-14T05:26:23;7.00;;;5.60;;
3329;SDS011;1677;49.576;10.990;2023-05-14T05:28:50;6.23;;;5.63;;
3329;SDS011;1677;49.576;10.990;2023-05-14T05:31:16;6.73;;;6.03;;
3329;SDS011;1677;49.576;10.990;2023-05-14T05:33:41;6.93;;;5.93;;
3329;SDS011;1677;49.576;10.990;2023-05-14T05:36:07;6.80;;;6.10;;
3329;SDS011;1677;49.576;10.990;2023-05-14T05:38:33;7.10;;;5.97;;
3329;SDS011;1677;49.576;10.990;2023-05-14T05:40:58;9.20;;;6.33;;
3329;SDS011;1677;49.576;10.990;2023-05-14T05:43:24;8.88;;;6.72;;
3329;SDS011;1677;49.576;10.990;2023-05-14T05:45:50;7.07;;;6.37;;
3329;SDS011;1677;49.576;10.990;2023-05-14T05:48:15;6.00;;;5.40;;
3329;SDS011;1677;49.576;10.990;2023-05-14T05:50:41;7.33;;;6.43;;
3329;SDS011;1677;49.576;10.990;2023-05-14T05:53:08;6.70;;;6.00;;
3329;SDS011;1677;49.576;10.990;2023-05-14T05:55:34;6.83;;;5.90;;
3329;SDS011;1677;49.576;10.990;2023-05-14T05:58:00;14.37;;;6.33;;
3329;SDS011;1677;49.576;10.990;2023-05-14T06:00:25;6.10;;;5.20;;
3329;SDS011;1677;49.576;10.990;2023-05-14T06:02:51;7.93;;;6.23;;
3329;SDS011;1677;49.576;10.990;2023-05-14T06:05:16;8.53;;;5.03;;
3329;SDS011;1677;49.576;10.990;2023-05-14T06:07:43;6.70;;;6.10;;
3329;SDS011;1677;49.576;10.990;2023-05-14T06:10:08;6.90;;;5.80;;
3329;SDS011;1677;49.576;10.990;2023-05-14T06:12:34;6.80;;;5.73;;
3329;SDS011;1677;49.576;10.990;2023-05-14T06:15:00;6.67;;;4.93;;
3329;SDS011;1677;49.576;10.990;2023-05-14T06:17:26;6.40;;;5.67;;
3329;SDS011;1677;49.576;10.990;2023-05-14T06:19:51;6.83;;;5.57;;
3329;SDS011;1677;49.576;10.990;2023-05-14T06:22:17;5.13;;;4.63;;
3329;SDS011;1677;49.576;10.990;2023-05-14T06:24:43;6.13;;;5.30;;
3329;SDS011;1677;49.576;10.990;2023-05-14T06:27:09;7.50;;;5.63;;
3329;SDS011;1677;49.576;10.990;2023-05-14T06:29:37;6.07;;;5.33;;
3329;SDS011;1677;49.576;10.990;2023-05-14T06:32:03;6.03;;;5.00;;
3329;SDS011;1677;49.576;10.990;2023-05-14T06:34:29;5.60;;;4.70;;
3329;SDS011;1677;49.576;10.990;2023-05-14T06:36:55;6.60;;;5.90;;
3329;SDS011;1677;49.576;10.990;2023-05-14T06:39:21;6.53;;;4.93;;
3329;SDS011;1677;49.576;10.990;2023-05-14T06:41:48;7.20;;;5.37;;
3329;SDS011;1677;49.576;10.990;2023-05-14T06:44:14;5.97;;;5.23;;
3329;SDS011;1677;49.576;10.990;2023-05-14T06:46:40;5.43;;;4.93;;
3329;SDS011;1677;49.576;10.990;2023-05-14T06:49:06;5.73;;;4.93;;
3329;SDS011;1677;49.576;10.990;2023-05-14T06:51:32;4.83;;;3.97;;
3329;SDS011;1677;49.576;10.990;2023-05-14T06:53:57;5.17;;;4.60;;
3329;SDS011;1677;49.576;10.990;2023-05-14T06:56:23;4.83;;;4.33;;
3329;SDS011;1677;49.576;10.990;2023-05-14T06:58:48;7.23;;;4.60;;
3329;SDS011;1677;49.576;10.990;2023-05-14T07:01:15;5.30;;;4.40;;
3329;SDS011;1677;49.576;10.990;2023-05-14T07:03:40;5.87;;;5.03;;
3329;SDS011;1677;49.576;10.990;2023-05-14T07:06:06;5.60;;;4.43;;
3329;SDS011;1677;49.576;10.990;2023-05-14T07:08:31;5.40;;;4.20;;
3329;SDS011;1677;49.576;10.990;2023-05-14T07:10:57;6.53;;;5.03;;
3329;SDS011;1677;49.576;10.990;2023-05-14T07:13:23;4.53;;;3.83;;
3329;SDS011;1677;49.576;10.990;2023-05-14T07:15:50;7.33;;;4.50;;
3329;SDS011;1677;49.576;10.990;2023-05-14T07:18:16;4.73;;;4.33;;
3329;SDS011;1677;49.576;10.990;2023-05-14T07:20:42;4.83;;;4.30;;
3329;SDS011;1677;49.576;10.990;2023-05-14T07:23:08;5.50;;;4.30;;
3329;SDS011;1677;49.576;10.990;2023-05-14T07:25:33;3.73;;;3.43;;
3329;SDS011;1677;49.576;10.990;2023-05-14T07:27:59;4.27;;;3.87;;
3329;SDS011;1677;49.576;10.990;2023-05-14T07:30:24;5.53;;;4.03;;
3329;SDS011;1677;49.576;10.990;2023-05-14T07:32:50;5.10;;;4.23;;
3329;SDS011;1677;49.576;10.990;2023-05-14T07:35:16;5.47;;;4.13;;
3329;SDS011;1677;49.576;10.990;2023-05-14T07:37:41;4.57;;;4.18;;
3329;SDS011;1677;49.576;10.990;2023-05-14T07:40:07;4.67;;;4.27;;
3329;SDS011;1677;49.576;10.990;2023-05-14T07:42:33;4.73;;;4.00;;
3329;SDS011;1677;49.576;10.990;2023-05-14T07:44:59;5.10;;;4.53;;
3329;SDS011;1677;49.576;10.990;2023-05-14T07:47:25;5.23;;;3.97;;
3329;SDS011;1677;49.576;10.990;2023-05-14T07:49:54;4.80;;;3.80;;
3329;SDS011;1677;49.576;10.990;2023-05-14T07:52:20;3.93;;;3.57;;
3329;SDS011;1677;49.576;10.990;2023-05-14T07:54:46;4.23;;;3.83;;
3329;SDS011;1677;49.576;10.990;2023-05-14T07:57:11;4.97;;;4.47;;
3329;SDS011;1677;49.576;10.990;2023-05-14T07:59:37;4.90;;;4.47;;
3329;SDS011;1677;49.576;10.990;2023-05-14T08:02:03;4.70;;;4.30;;
3329;SDS011;1677;49.576;10.990;2023-05-14T08:04:28;5.13;;;4.30;;
3329;SDS011;1677;49.576;10.990;2023-05-14T08:06:54;4.23;;;3.83;;
3329;SDS011;1677;49.576;10.990;2023-05-14T08:09:22;5.93;;;5.33;;
3329;SDS011;1677;49.576;10.990;2023-05-14T08:11:47;4.53;;;3.80;;
3329;SDS011;1677;49.576;10.990;2023-05-14T08:14:13;4.77;;;3.73;;
3329;SDS011;1677;49.576;10.990;2023-05-14T08:16:38;5.03;;;4.47;;
3329;SDS011;1677;49.576;10.990;2023-05-14T08:19:04;10.03;;;4.63;;
3329;SDS011;1677;49.576;10.990;2023-05-14T08:21:30;4.47;;;4.07;;
3329;SDS011;1677;49.576;10.990;2023-05-14T08:23:56;8.80;;;4.97;;
3329;SDS011;1677;49.576;10.990;2023-05-14T08:26:22;5.40;;;4.70;;
3329;SDS011;1677;49.576;10.990;2023-05-14T08:28:47;5.30;;;4.80;;
3329;SDS011;1677;49.576;10.990;2023-05-14T08:31:13;4.70;;;4.20;;
3329;SDS011;1677;49.576;10.990;2023-05-14T08:33:39;4.97;;;4.47;;
3329;SDS011;1677;49.576;10.990;2023-05-14T08:36:05;4.60;;;4.20;;
3329;SDS011;1677;49.576;10.990;2023-05-14T08:38:31;5.87;;;4.70;;
3329;SDS011;1677;49.576;10.990;2023-05-14T08:40:57;5.03;;;4.57;;
3329;SDS011;1677;49.576;10.990;2023-05-14T08:43:28;5.13;;;4.13;;
3329;SDS011;1677;49.576;10.990;2023-05-14T08:46:00;5.37;;;4.80;;
3329;SDS011;1677;49.576;10.990;2023-05-14T08:48:28;5.23;;;4.73;;
3329;SDS011;1677;49.576;10.990;2023-05-14T08:50:57;5.13;;;4.30;;
3329;SDS011;1677;49.576;10.990;2023-05-14T08:53:23;5.53;;;4.27;;
3329;SDS011;1677;49.576;10.990;2023-05-14T08:55:49;5.90;;;5.30;;
3329;SDS011;1677;49.576;10.990;2023-05-14T08:58:15;5.17;;;4.60;;
3329;SDS011;1677;49.576;10.990;2023-05-14T09:00:41;5.80;;;4.70;;
3329;SDS011;1677;49.576;10.990;2023-05-14T09:03:07;7.07;;;5.33;;
3329;SDS011;1677;49.576;10.990;2023-05-14T09:05:33;4.97;;;4.23;;
3329;SDS011;1677;49.576;10.990;2023-05-14T09:07:59;5.60;;;4.32;;
3329;SDS011;1677;49.576;10.990;2023-05-14T09:10:24;7.90;;;5.20;;
3329;SDS011;1677;49.576;10.990;2023-05-14T09:12:50;4.83;;;4.37;;
3329;SDS011;1677;49.576;10.990;2023-05-14T09:15:16;4.10;;;3.50;;
3329;SDS011;1677;49.576;10.990;2023-05-14T09:17:42;5.38;;;4.80;;
3329;SDS011;1677;49.576;10.990;2023-05-14T09:20:08;5.60;;;5.03;;
3329;SDS011;1677;49.576;10.990;2023-05-14T09:22:36;4.93;;;4.30;;
3329;SDS011;1677;49.576;10.990;2023-05-14T09:27:29;6.10;;;5.43;;
3329;SDS011;1677;49.576;10.990;2023-05-14T09:30:03;5.17;;;3.90;;
3329;SDS011;1677;49.576;10.990;2023-05-14T09:32:36;4.27;;;3.87;;
3329;SDS011;1677;49.576;10.990;2023-05-14T09:35:12;5.70;;;4.87;;
3329;SDS011;1677;49.576;10.990;2023-05-14T09:37:41;6.77;;;5.00;;
3329;SDS011;1677;49.576;10.990;2023-05-14T09:40:11;5.90;;;4.90;;
3329;SDS011;1677;49.576;10.990;2023-05-14T09:42:38;7.87;;;4.87;;
3329;SDS011;1677;49.576;10.990;2023-05-14T09:45:05;4.60;;;4.17;;
3329;SDS011;1677;49.576;10.990;2023-05-14T09:47:31;5.87;;;4.03;;
3329;SDS011;1677;49.576;10.990;2023-05-14T09:49:57;10.63;;;4.33;;
3329;SDS011;1677;49.576;10.990;2023-05-14T09:52:23;5.63;;;5.00;;
3329;SDS011;1677;49.576;10.990;2023-05-14T09:54:50;4.83;;;4.20;;
3329;SDS011;1677;49.576;10.990;2023-05-14T09:57:16;5.33;;;4.83;;
3329;SDS011;1677;49.576;10.990;2023-05-14T09:59:41;5.30;;;4.40;;
3329;SDS011;1677;49.576;10.990;2023-05-14T10:02:09;5.77;;;4.73;;
3329;SDS011;1677;49.576;10.990;2023-05-14T10:04:46;6.65;;;5.40;;
3329;SDS011;1677;49.576;10.990;2023-05-14T10:07:13;4.73;;;3.93;;
3329;SDS011;1677;49.576;10.990;2023-05-14T10:09:41;4.83;;;4.30;;
3329;SDS011;1677;49.576;10.990;2023-05-14T10:12:09;5.97;;;4.77;;
3329;SDS011;1677;49.576;10.990;2023-05-14T10:14:38;4.13;;;3.73;;
3329;SDS011;1677;49.576;10.990;2023-05-14T10:17:06;4.00;;;3.60;;
3329;SDS011;1677;49.576;10.990;2023-05-14T10:19:42;4.70;;;4.23;;
3329;SDS011;1677;49.576;10.990;2023-05-14T10:22:13;5.30;;;4.07;;
3329;SDS011;1677;49.576;10.990;2023-05-14T10:24:40;4.40;;;4.00;;
3329;SDS011;1677;49.576;10.990;2023-05-14T10:27:06;4.80;;;3.80;;
3329;SDS011;1677;49.576;10.990;2023-05-14T10:29:32;3.77;;;3.37;;
3329;SDS011;1677;49.576;10.990;2023-05-14T10:32:00;4.77;;;3.73;;
3329;SDS011;1677;49.576;10.990;2023-05-14T10:39:48;5.27;;;3.90;;
3329;SDS011;1677;49.576;10.990;2023-05-14T10:42:16;5.07;;;4.57;;
3329;SDS011;1677;49.576;10.990;2023-05-14T10:44:53;4.43;;;4.03;;
3329;SDS011;1677;49.576;10.990;2023-05-14T10:47:22;4.20;;;3.80;;
3329;SDS011;1677;49.576;10.990;2023-05-14T10:49:50;4.93;;;4.30;;
3329;SDS011;1677;49.576;10.990;2023-05-14T10:52:18;6.93;;;4.13;;
3329;SDS011;1677;49.576;10.990;2023-05-14T10:54:48;5.30;;;3.57;;
3329;SDS011;1677;49.576;10.990;2023-05-14T10:57:16;5.63;;;5.10;;
3329;SDS011;1677;49.576;10.990;2023-05-14T10:59:43;4.97;;;4.47;;
3329;SDS011;1677;49.576;10.990;2023-05-14T11:04:51;4.47;;;4.03;;
3329;SDS011;1677;49.576;10.990;2023-05-14T11:07:22;4.70;;;4.27;;
3329;SDS011;1677;49.576;10.990;2023-05-14T11:10:18;5.00;;;4.50;;
3329;SDS011;1677;49.576;10.990;2023-05-14T11:12:46;5.13;;;3.80;;
3329;SDS011;1677;49.576;10.990;2023-05-14T11:15:14;4.57;;;4.00;;
3329;SDS011;1677;49.576;10.990;2023-05-14T11:17:42;12.83;;;8.07;;
3329;SDS011;1677;49.576;10.990;2023-05-14T11:20:08;4.20;;;3.80;;
3329;SDS011;1677;49.576;10.990;2023-05-14T11:22:35;7.73;;;4.50;;
3329;SDS011;1677;49.576;10.990;2023-05-14T11:25:02;4.73;;;4.17;;
3329;SDS011;1677;49.576;10.990;2023-05-14T11:27:28;4.40;;;3.97;;
3329;SDS011;1677;49.576;10.990;2023-05-14T11:29:55;3.77;;;3.47;;
3329;SDS011;1677;49.576;10.990;2023-05-14T11:32:22;5.10;;;4.60;;
3329;SDS011;1677;49.576;10.990;2023-05-14T11:34:47;4.47;;;4.07;;
3329;SDS011;1677;49.576;10.990;2023-05-14T11:37:13;3.70;;;3.40;;
3329;SDS011;1677;49.576;10.990;2023-05-14T11:39:48;3.60;;;3.30;;
3329;SDS011;1677;49.576;10.990;2023-05-14T11:42:15;3.47;;;3.17;;
3329;SDS011;1677;49.576;10.990;2023-05-14T11:44:42;4.07;;;3.33;;
3329;SDS011;1677;49.576;10.990;2023-05-14T11:47:09;4.13;;;3.10;;
3329;SDS011;1677;49.576;10.990;2023-05-14T11:49:35;4.00;;;3.70;;
3329;SDS011;1677;49.576;10.990;2023-05-14T11:52:02;4.30;;;4.00;;
3329;SDS011;1677;49.576;10.990;2023-05-14T11:54:30;3.67;;;2.90;;
3329;SDS011;1677;49.576;10.990;2023-05-14T11:56:56;3.50;;;3.20;;
3329;SDS011;1677;49.576;10.990;2023-05-14T11:59:24;5.27;;;3.97;;
3329;SDS011;1677;49.576;10.990;2023-05-14T12:01:56;4.63;;;4.05;;
3329;SDS011;1677;49.576;10.990;2023-05-14T12:04:22;3.77;;;3.47;;
3329;SDS011;1677;49.576;10.990;2023-05-14T12:06:48;4.97;;;4.40;;
3329;SDS011;1677;49.576;10.990;2023-05-14T12:09:21;4.00;;;3.60;;
3329;SDS011;1677;49.576;10.990;2023-05-14T12:11:47;4.20;;;3.90;;
3329;SDS011;1677;49.576;10.990;2023-05-14T12:14:22;3.60;;;3.30;;
3329;SDS011;1677;49.576;10.990;2023-05-14T12:16:48;4.20;;;3.60;;
3329;SDS011;1677;49.576;10.990;2023-05-14T12:19:18;3.33;;;3.03;;
3329;SDS011;1677;49.576;10.990;2023-05-14T12:21:46;4.57;;;3.73;;
3329;SDS011;1677;49.576;10.990;2023-05-14T12:24:12;3.27;;;2.97;;
3329;SDS011;1677;49.576;10.990;2023-05-14T12:26:43;4.30;;;3.20;;
3329;SDS011;1677;49.576;10.990;2023-05-14T12:29:11;3.50;;;3.20;;
3329;SDS011;1677;49.576;10.990;2023-05-14T12:31:43;3.27;;;2.97;;
3329;SDS011;1677;49.576;10.990;2023-05-14T12:34:10;3.50;;;3.20;;
3329;SDS011;1677;49.576;10.990;2023-05-14T12:36:36;3.07;;;2.67;;
3329;SDS011;1677;49.576;10.990;2023-05-14T12:39:01;3.93;;;3.63;;
3329;SDS011;1677;49.576;10.990;2023-05-14T12:41:28;3.30;;;3.00;;
3329;SDS011;1677;49.576;10.990;2023-05-14T12:43:55;3.40;;;3.10;;
3329;SDS011;1677;49.576;10.990;2023-05-14T12:46:20;3.13;;;2.93;;
3329;SDS011;1677;49.576;10.990;2023-05-14T12:48:46;4.30;;;3.90;;
3329;SDS011;1677;49.576;10.990;2023-05-14T12:51:12;4.40;;;3.63;;
3329;SDS011;1677;49.576;10.990;2023-05-14T12:53:37;4.10;;;3.13;;
3329;SDS011;1677;49.576;10.990;2023-05-14T12:56:03;3.30;;;3.00;;
3329;SDS011;1677;49.576;10.990;2023-05-14T12:58:30;6.20;;;3.00;;
3329;SDS011;1677;49.576;10.990;2023-05-14T13:00:55;3.43;;;3.13;;
3329;SDS011;1677;49.576;10.990;2023-05-14T13:03:21;3.63;;;3.30;;
3329;SDS011;1677;49.576;10.990;2023-05-14T13:05:47;3.70;;;3.00;;
3329;SDS011;1677;49.576;10.990;2023-05-14T13:08:12;3.30;;;2.53;;
3329;SDS011;1677;49.576;10.990;2023-05-14T13:10:42;3.70;;;3.13;;
3329;SDS011;1677;49.576;10.990;2023-05-14T13:13:08;3.73;;;3.00;;
3329;SDS011;1677;49.576;10.990;2023-05-14T13:15:35;3.80;;;2.80;;
3329;SDS011;1677;49.576;10.990;2023-05-14T13:18:01;3.53;;;3.22;;
3329;SDS011;1677;49.576;10.990;2023-05-14T13:20:27;3.90;;;3.50;;
3329;SDS011;1677;49.576;10.990;2023-05-14T13:22:54;2.93;;;2.73;;
3329;SDS011;1677;49.576;10.990;2023-05-14T13:25:23;3.30;;;3.00;;
3329;SDS011;1677;49.576;10.990;2023-05-14T13:27:49;3.83;;;3.40;;
3329;SDS011;1677;49.576;10.990;2023-05-14T13:30:16;4.60;;;3.43;;
3329;SDS011;1677;49.576;10.990;2023-05-14T13:32:42;3.27;;;2.70;;
3329;SDS011;1677;49.576;10.990;2023-05-14T13:35:08;2.70;;;2.50;;
3329;SDS011;1677;49.576;10.990;2023-05-14T13:37:34;3.33;;;3.03;;
3329;SDS011;1677;49.576;10.990;2023-05-14T13:40:00;3.70;;;3.07;;
3329;SDS011;1677;49.576;10.990;2023-05-14T13:42:28;3.30;;;3.00;;
3329;SDS011;1677;49.576;10.990;2023-05-14T13:44:54;2.80;;;2.60;;
3329;SDS011;1677;49.576;10.990;2023-05-14T13:47:20;3.57;;;3.27;;
3329;SDS011;1677;49.576;10.990;2023-05-14T13:49:45;3.33;;;3.03;;
3329;SDS011;1677;49.576;10.990;2023-05-14T13:52:11;3.90;;;3.20;;
3329;SDS011;1677;49.576;10.990;2023-05-14T13:54:37;3.20;;;2.90;;
3329;SDS011;1677;49.576;10.990;2023-05-14T13:57:02;3.27;;;3.00;;
3329;SDS011;1677;49.576;10.990;2023-05-14T13:59:28;3.60;;;3.30;;
3329;SDS011;1677;49.576;10.990;2023-05-14T14:01:54;3.03;;;2.73;;
3329;SDS011;1677;49.576;10.990;2023-05-14T14:04:19;3.80;;;3.50;;
3329;SDS011;1677;49.576;10.990;2023-05-14T14:06:46;2.97;;;2.77;;
3329;SDS011;1677;49.576;10.990;2023-05-14T14:09:13;3.80;;;3.37;;
3329;SDS011;1677;49.576;10.990;2023-05-14T14:11:39;3.50;;;3.20;;
3329;SDS011;1677;49.576;10.990;2023-05-14T14:14:05;3.50;;;3.00;;
3329;SDS011;1677;49.576;10.990;2023-05-14T14:16:30;3.33;;;3.03;;
3329;SDS011;1677;49.576;10.990;2023-05-14T14:18:56;3.80;;;3.50;;
3329;SDS011;1677;49.576;10.990;2023-05-14T14:21:21;3.13;;;2.87;;
3329;SDS011;1677;49.576;10.990;2023-05-14T14:23:47;2.90;;;2.70;;
3329;SDS011;1677;49.576;10.990;2023-05-14T14:26:13;3.23;;;2.93;;
3329;SDS011;1677;49.576;10.990;2023-05-14T14:28:38;3.33;;;3.03;;
3329;SDS011;1677;49.576;10.990;2023-05-14T14:31:04;3.80;;;3.20;;
3329;SDS011;1677;49.576;10.990;2023-05-14T14:33:30;3.50;;;3.20;;
3329;SDS011;1677;49.576;10.990;2023-05-14T14:35:56;3.30;;;3.00;;
3329;SDS011;1677;49.576;10.990;2023-05-14T14:38:21;3.07;;;2.77;;
3329;SDS011;1677;49.576;10.990;2023-05-14T14:40:47;3.60;;;3.30;;
3329;SDS011;1677;49.576;10.990;2023-05-14T14:43:12;3.50;;;3.20;;
3329;SDS011;1677;49.576;10.990;2023-05-14T14:45:38;3.03;;;2.80;;
3329;SDS011;1677;49.576;10.990;2023-05-14T14:50:49;3.30;;;3.00;;
3329;SDS011;1677;49.576;10.990;2023-05-14T14:53:16;3.63;;;3.10;;
3329;SDS011;1677;49.576;10.990;2023-05-14T14:55:46;2.77;;;2.57;;
3329;SDS011;1677;49.576;10.990;2023-05-14T14:58:15;3.20;;;2.90;;
3329;SDS011;1677;49.576;10.990;2023-05-14T15:00:42;4.10;;;3.43;;
3329;SDS011;1677;49.576;10.990;2023-05-14T15:03:08;6.80;;;3.33;;
3329;SDS011;1677;49.576;10.990;2023-05-14T15:05:34;4.33;;;3.30;;
3329;SDS011;1677;49.576;10.990;2023-05-14T15:07:59;4.40;;;3.07;;
3329;SDS011;1677;49.576;10.990;2023-05-14T15:10:29;3.10;;;2.80;;
3329;SDS011;1677;49.576;10.990;2023-05-14T15:12:57;6.83;;;3.00;;